sensor_id;sensor_type;location;lat;lon;timestamp;P1;durP1;ratioP1;P2;durP2;ratioP2
80293;SDS011;69594;43.516;1.498;2023-06-14T00:00:32;3.33;;;1.60;;
80293;SDS011;69594;43.516;1.498;2023-06-14T00:02:59;4.37;;;1.63;;
80293;SDS011;69594;43.516;1.498;2023-06-14T00:05:25;4.07;;;1.70;;
80293;SDS011;69594;43.516;1.498;2023-06-14T00:07:51;2.72;;;1.90;;
80293;SDS011;69594;43.516;1.498;2023-06-14T00:10:19;3.97;;;2.03;;
80293;SDS011;69594;43.516;1.498;2023-06-14T00:12:44;3.35;;;1.90;;
80293;SDS011;69594;43.516;1.498;2023-06-14T00:15:10;2.97;;;1.80;;
80293;SDS011;69594;43.516;1.498;2023-06-14T00:17:35;3.60;;;1.90;;
80293;SDS011;69594;43.516;1.498;2023-06-14T00:20:02;2.78;;;2.10;;
80293;SDS011;69594;43.516;1.498;2023-06-14T00:22:30;4.00;;;2.30;;
80293;SDS011;69594;43.516;1.498;2023-06-14T00:24:56;2.97;;;1.93;;
80293;SDS011;69594;43.516;1.498;2023-06-14T00:27:22;4.20;;;2.20;;
80293;SDS011;69594;43.516;1.498;2023-06-14T00:29:47;3.70;;;2.43;;
80293;SDS011;69594;43.516;1.498;2023-06-14T00:32:13;3.10;;;1.83;;
80293;SDS011;69594;43.516;1.498;2023-06-14T00:34:38;2.63;;;1.92;;
80293;SDS011;69594;43.516;1.498;2023-06-14T00:37:04;3.47;;;2.07;;
80293;SDS011;69594;43.516;1.498;2023-06-14T00:39:30;3.88;;;2.03;;
80293;SDS011;69594;43.516;1.498;2023-06-14T00:41:55;4.60;;;2.07;;
80293;SDS011;69594;43.516;1.498;2023-06-14T00:44:20;4.60;;;2.27;;
80293;SDS011;69594;43.516;1.498;2023-06-14T00:46:46;2.78;;;2.03;;
80293;SDS011;69594;43.516;1.498;2023-06-14T00:49:13;3.23;;;1.70;;
80293;SDS011;69594;43.516;1.498;2023-06-14T00:51:40;2.95;;;1.92;;
80293;SDS011;69594;43.516;1.498;2023-06-14T00:54:07;5.40;;;2.10;;
80293;SDS011;69594;43.516;1.498;2023-06-14T00:56:35;4.45;;;2.40;;
80293;SDS011;69594;43.516;1.498;2023-06-14T00:59:01;2.43;;;1.60;;
80293;SDS011;69594;43.516;1.498;2023-06-14T01:01:28;3.58;;;2.42;;
80293;SDS011;69594;43.516;1.498;2023-06-14T01:03:57;4.60;;;2.22;;
80293;SDS011;69594;43.516;1.498;2023-06-14T01:06:28;6.00;;;2.25;;
80293;SDS011;69594;43.516;1.498;2023-06-14T01:09:48;3.60;;;2.10;;
80293;SDS011;69594;43.516;1.498;2023-06-14T01:11:54;3.72;;;2.28;;
80293;SDS011;69594;43.516;1.498;2023-06-14T01:14:25;3.30;;;2.33;;
80293;SDS011;69594;43.516;1.498;2023-06-14T01:16:53;3.97;;;2.30;;
80293;SDS011;69594;43.516;1.498;2023-06-14T01:19:20;4.50;;;3.03;;
80293;SDS011;69594;43.516;1.498;2023-06-14T01:21:47;6.10;;;3.40;;
80293;SDS011;69594;43.516;1.498;2023-06-14T01:24:16;5.63;;;3.20;;
80293;SDS011;69594;43.516;1.498;2023-06-14T01:26:44;5.70;;;3.72;;
80293;SDS011;69594;43.516;1.498;2023-06-14T01:29:12;7.32;;;3.50;;
80293;SDS011;69594;43.516;1.498;2023-06-14T01:31:42;5.68;;;3.65;;
80293;SDS011;69594;43.516;1.498;2023-06-14T01:34:08;4.57;;;2.90;;
80293;SDS011;69594;43.516;1.498;2023-06-14T01:36:34;4.13;;;2.97;;
80293;SDS011;69594;43.516;1.498;2023-06-14T01:39:01;4.50;;;3.17;;
80293;SDS011;69594;43.516;1.498;2023-06-14T01:41:28;4.20;;;2.93;;
80293;SDS011;69594;43.516;1.498;2023-06-14T01:43:55;4.55;;;3.15;;
80293;SDS011;69594;43.516;1.498;2023-06-14T01:46:21;4.55;;;2.78;;
80293;SDS011;69594;43.516;1.498;2023-06-14T01:48:48;4.80;;;2.80;;
80293;SDS011;69594;43.516;1.498;2023-06-14T01:51:14;8.02;;;3.40;;
80293;SDS011;69594;43.516;1.498;2023-06-14T01:53:40;5.00;;;3.27;;
80293;SDS011;69594;43.516;1.498;2023-06-14T01:56:06;6.57;;;3.70;;
80293;SDS011;69594;43.516;1.498;2023-06-14T01:58:31;5.17;;;3.70;;
80293;SDS011;69594;43.516;1.498;2023-06-14T02:00:57;5.78;;;4.07;;
80293;SDS011;69594;43.516;1.498;2023-06-14T02:03:25;6.15;;;3.88;;
80293;SDS011;69594;43.516;1.498;2023-06-14T02:05:51;6.27;;;4.27;;
80293;SDS011;69594;43.516;1.498;2023-06-14T02:08:17;6.82;;;4.07;;
80293;SDS011;69594;43.516;1.498;2023-06-14T02:10:42;5.77;;;4.07;;
80293;SDS011;69594;43.516;1.498;2023-06-14T02:13:08;7.10;;;4.33;;
80293;SDS011;69594;43.516;1.498;2023-06-14T02:15:34;6.67;;;4.40;;
80293;SDS011;69594;43.516;1.498;2023-06-14T02:18:09;7.10;;;4.43;;
80293;SDS011;69594;43.516;1.498;2023-06-14T02:20:35;9.80;;;4.25;;
80293;SDS011;69594;43.516;1.498;2023-06-14T02:23:02;7.00;;;4.50;;
80293;SDS011;69594;43.516;1.498;2023-06-14T02:25:27;7.23;;;4.80;;
80293;SDS011;69594;43.516;1.498;2023-06-14T02:27:53;8.23;;;4.32;;
80293;SDS011;69594;43.516;1.498;2023-06-14T02:30:20;8.57;;;4.93;;
80293;SDS011;69594;43.516;1.498;2023-06-14T02:32:45;8.18;;;4.80;;
80293;SDS011;69594;43.516;1.498;2023-06-14T02:35:13;8.30;;;5.03;;
80293;SDS011;69594;43.516;1.498;2023-06-14T02:37:39;6.83;;;4.63;;
80293;SDS011;69594;43.516;1.498;2023-06-14T02:40:05;8.38;;;5.00;;
80293;SDS011;69594;43.516;1.498;2023-06-14T02:42:31;7.65;;;5.15;;
80293;SDS011;69594;43.516;1.498;2023-06-14T02:44:57;7.50;;;4.90;;
80293;SDS011;69594;43.516;1.498;2023-06-14T02:47:22;9.40;;;5.37;;
80293;SDS011;69594;43.516;1.498;2023-06-14T02:49:49;8.23;;;5.38;;
80293;SDS011;69594;43.516;1.498;2023-06-14T02:52:15;9.85;;;5.22;;
80293;SDS011;69594;43.516;1.498;2023-06-14T02:54:40;6.87;;;5.07;;
80293;SDS011;69594;43.516;1.498;2023-06-14T02:57:06;7.90;;;5.80;;
80293;SDS011;69594;43.516;1.498;2023-06-14T02:59:33;8.60;;;5.45;;
80293;SDS011;69594;43.516;1.498;2023-06-14T03:02:00;9.15;;;5.82;;
80293;SDS011;69594;43.516;1.498;2023-06-14T03:04:25;7.80;;;5.30;;
80293;SDS011;69594;43.516;1.498;2023-06-14T03:06:52;7.22;;;5.50;;
80293;SDS011;69594;43.516;1.498;2023-06-14T03:09:18;7.90;;;5.57;;
80293;SDS011;69594;43.516;1.498;2023-06-14T03:11:44;12.20;;;5.32;;
80293;SDS011;69594;43.516;1.498;2023-06-14T03:14:10;7.75;;;5.80;;
80293;SDS011;69594;43.516;1.498;2023-06-14T03:16:36;9.87;;;6.03;;
80293;SDS011;69594;43.516;1.498;2023-06-14T03:19:02;8.40;;;5.10;;
80293;SDS011;69594;43.516;1.498;2023-06-14T03:21:27;8.90;;;6.20;;
80293;SDS011;69594;43.516;1.498;2023-06-14T03:23:53;8.13;;;5.70;;
80293;SDS011;69594;43.516;1.498;2023-06-14T03:26:19;10.82;;;6.13;;
80293;SDS011;69594;43.516;1.498;2023-06-14T03:28:45;8.00;;;5.43;;
80293;SDS011;69594;43.516;1.498;2023-06-14T03:31:11;9.02;;;6.15;;
80293;SDS011;69594;43.516;1.498;2023-06-14T03:33:40;10.48;;;6.43;;
80293;SDS011;69594;43.516;1.498;2023-06-14T03:36:05;9.57;;;5.50;;
80293;SDS011;69594;43.516;1.498;2023-06-14T03:38:31;10.30;;;5.53;;
80293;SDS011;69594;43.516;1.498;2023-06-14T03:40:57;9.40;;;5.90;;
80293;SDS011;69594;43.516;1.498;2023-06-14T03:43:23;11.87;;;6.00;;
80293;SDS011;69594;43.516;1.498;2023-06-14T03:45:48;8.70;;;5.67;;
80293;SDS011;69594;43.516;1.498;2023-06-14T03:48:13;9.20;;;6.20;;
80293;SDS011;69594;43.516;1.498;2023-06-14T03:50:39;10.83;;;6.00;;
80293;SDS011;69594;43.516;1.498;2023-06-14T03:53:05;9.07;;;6.13;;
80293;SDS011;69594;43.516;1.498;2023-06-14T03:55:31;8.55;;;5.57;;
80293;SDS011;69594;43.516;1.498;2023-06-14T03:57:58;10.90;;;6.10;;
80293;SDS011;69594;43.516;1.498;2023-06-14T04:00:26;12.03;;;6.47;;
80293;SDS011;69594;43.516;1.498;2023-06-14T04:02:55;8.40;;;6.15;;
80293;SDS011;69594;43.516;1.498;2023-06-14T04:05:20;10.27;;;6.37;;
80293;SDS011;69594;43.516;1.498;2023-06-14T04:07:46;9.47;;;6.40;;
80293;SDS011;69594;43.516;1.498;2023-06-14T04:10:13;10.07;;;6.03;;
80293;SDS011;69594;43.516;1.498;2023-06-14T04:12:40;7.78;;;5.88;;
80293;SDS011;69594;43.516;1.498;2023-06-14T04:15:06;8.77;;;5.97;;
80293;SDS011;69594;43.516;1.498;2023-06-14T04:17:33;9.70;;;5.90;;
80293;SDS011;69594;43.516;1.498;2023-06-14T04:19:59;10.75;;;6.40;;
80293;SDS011;69594;43.516;1.498;2023-06-14T04:22:25;9.63;;;5.57;;
80293;SDS011;69594;43.516;1.498;2023-06-14T04:24:53;11.95;;;5.47;;
80293;SDS011;69594;43.516;1.498;2023-06-14T04:27:23;9.73;;;5.60;;
80293;SDS011;69594;43.516;1.498;2023-06-14T04:29:54;9.60;;;5.23;;
80293;SDS011;69594;43.516;1.498;2023-06-14T04:32:24;8.52;;;6.20;;
80293;SDS011;69594;43.516;1.498;2023-06-14T04:34:54;9.95;;;6.25;;
80293;SDS011;69594;43.516;1.498;2023-06-14T04:37:23;9.93;;;6.22;;
80293;SDS011;69594;43.516;1.498;2023-06-14T04:39:49;10.20;;;6.47;;
80293;SDS011;69594;43.516;1.498;2023-06-14T04:42:15;9.73;;;6.20;;
80293;SDS011;69594;43.516;1.498;2023-06-14T04:44:42;9.50;;;6.43;;
80293;SDS011;69594;43.516;1.498;2023-06-14T04:47:08;10.77;;;6.82;;
80293;SDS011;69594;43.516;1.498;2023-06-14T04:49:38;9.32;;;6.10;;
80293;SDS011;69594;43.516;1.498;2023-06-14T04:52:05;11.93;;;7.03;;
80293;SDS011;69594;43.516;1.498;2023-06-14T04:54:31;10.57;;;6.60;;
80293;SDS011;69594;43.516;1.498;2023-06-14T04:57:03;10.55;;;7.30;;
80293;SDS011;69594;43.516;1.498;2023-06-14T04:59:30;12.90;;;7.20;;
80293;SDS011;69594;43.516;1.498;2023-06-14T05:01:59;11.43;;;8.30;;
80293;SDS011;69594;43.516;1.498;2023-06-14T05:04:25;16.63;;;8.40;;
80293;SDS011;69594;43.516;1.498;2023-06-14T05:06:53;14.20;;;8.32;;
80293;SDS011;69594;43.516;1.498;2023-06-14T05:09:19;14.55;;;8.40;;
80293;SDS011;69594;43.516;1.498;2023-06-14T05:11:46;12.75;;;8.63;;
80293;SDS011;69594;43.516;1.498;2023-06-14T05:14:12;14.07;;;8.07;;
80293;SDS011;69594;43.516;1.498;2023-06-14T05:16:38;13.20;;;8.33;;
80293;SDS011;69594;43.516;1.498;2023-06-14T05:19:04;12.93;;;8.85;;
80293;SDS011;69594;43.516;1.498;2023-06-14T05:21:31;14.15;;;9.02;;
80293;SDS011;69594;43.516;1.498;2023-06-14T05:23:59;15.25;;;9.35;;
80293;SDS011;69594;43.516;1.498;2023-06-14T05:26:25;14.65;;;9.23;;
80293;SDS011;69594;43.516;1.498;2023-06-14T05:28:56;15.27;;;8.30;;
80293;SDS011;69594;43.516;1.498;2023-06-14T05:31:25;14.63;;;8.90;;
80293;SDS011;69594;43.516;1.498;2023-06-14T05:33:51;15.77;;;9.50;;
80293;SDS011;69594;43.516;1.498;2023-06-14T05:36:17;13.40;;;8.43;;
80293;SDS011;69594;43.516;1.498;2023-06-14T05:38:43;12.17;;;9.40;;
80293;SDS011;69594;43.516;1.498;2023-06-14T05:41:08;16.40;;;9.88;;
80293;SDS011;69594;43.516;1.498;2023-06-14T05:43:34;14.03;;;8.73;;
80293;SDS011;69594;43.516;1.498;2023-06-14T05:45:59;12.77;;;8.17;;
80293;SDS011;69594;43.516;1.498;2023-06-14T05:48:25;16.40;;;8.68;;
80293;SDS011;69594;43.516;1.498;2023-06-14T05:50:50;12.53;;;8.40;;
80293;SDS011;69594;43.516;1.498;2023-06-14T05:53:16;15.17;;;9.23;;
80293;SDS011;69594;43.516;1.498;2023-06-14T05:55:41;15.45;;;8.65;;
80293;SDS011;69594;43.516;1.498;2023-06-14T05:58:07;13.30;;;8.30;;
80293;SDS011;69594;43.516;1.498;2023-06-14T06:00:32;14.30;;;9.50;;
80293;SDS011;69594;43.516;1.498;2023-06-14T06:02:58;13.88;;;8.57;;
80293;SDS011;69594;43.516;1.498;2023-06-14T06:05:24;13.73;;;8.83;;
80293;SDS011;69594;43.516;1.498;2023-06-14T06:07:49;12.38;;;8.65;;
80293;SDS011;69594;43.516;1.498;2023-06-14T06:10:15;15.57;;;9.13;;
80293;SDS011;69594;43.516;1.498;2023-06-14T06:12:41;14.73;;;8.77;;
80293;SDS011;69594;43.516;1.498;2023-06-14T06:15:08;15.30;;;9.52;;
80293;SDS011;69594;43.516;1.498;2023-06-14T06:17:37;13.85;;;9.27;;
80293;SDS011;69594;43.516;1.498;2023-06-14T06:20:03;13.18;;;8.85;;
80293;SDS011;69594;43.516;1.498;2023-06-14T06:22:33;16.00;;;8.43;;
80293;SDS011;69594;43.516;1.498;2023-06-14T06:24:59;13.27;;;8.57;;
80293;SDS011;69594;43.516;1.498;2023-06-14T06:27:25;14.57;;;8.90;;
80293;SDS011;69594;43.516;1.498;2023-06-14T06:29:51;14.23;;;8.23;;
80293;SDS011;69594;43.516;1.498;2023-06-14T06:32:17;18.92;;;9.13;;
80293;SDS011;69594;43.516;1.498;2023-06-14T06:34:42;15.27;;;8.93;;
80293;SDS011;69594;43.516;1.498;2023-06-14T06:37:08;16.40;;;8.57;;
80293;SDS011;69594;43.516;1.498;2023-06-14T06:39:35;17.52;;;8.90;;
80293;SDS011;69594;43.516;1.498;2023-06-14T06:42:01;12.60;;;8.27;;
80293;SDS011;69594;43.516;1.498;2023-06-14T06:44:26;18.87;;;8.87;;
80293;SDS011;69594;43.516;1.498;2023-06-14T06:46:52;12.70;;;8.77;;
80293;SDS011;69594;43.516;1.498;2023-06-14T06:49:17;14.00;;;8.73;;
80293;SDS011;69594;43.516;1.498;2023-06-14T06:51:43;10.87;;;8.00;;
80293;SDS011;69594;43.516;1.498;2023-06-14T06:54:09;13.80;;;8.63;;
80293;SDS011;69594;43.516;1.498;2023-06-14T06:56:35;11.07;;;8.35;;
80293;SDS011;69594;43.516;1.498;2023-06-14T06:59:01;10.48;;;8.02;;
80293;SDS011;69594;43.516;1.498;2023-06-14T07:04:03;11.73;;;8.00;;
80293;SDS011;69594;43.516;1.498;2023-06-14T07:06:30;11.63;;;7.95;;
80293;SDS011;69594;43.516;1.498;2023-06-14T07:08:55;14.73;;;8.77;;
80293;SDS011;69594;43.516;1.498;2023-06-14T07:11:26;14.55;;;8.25;;
80293;SDS011;69594;43.516;1.498;2023-06-14T07:13:51;16.60;;;8.27;;
80293;SDS011;69594;43.516;1.498;2023-06-14T07:16:17;12.63;;;8.33;;
80293;SDS011;69594;43.516;1.498;2023-06-14T07:18:42;16.88;;;8.82;;
80293;SDS011;69594;43.516;1.498;2023-06-14T07:21:09;16.17;;;9.00;;
80293;SDS011;69594;43.516;1.498;2023-06-14T07:23:34;13.68;;;8.80;;
80293;SDS011;69594;43.516;1.498;2023-06-14T07:26:00;13.93;;;7.93;;
80293;SDS011;69594;43.516;1.498;2023-06-14T07:28:26;15.85;;;9.23;;
80293;SDS011;69594;43.516;1.498;2023-06-14T07:30:51;13.77;;;8.50;;
80293;SDS011;69594;43.516;1.498;2023-06-14T07:33:16;13.07;;;8.30;;
80293;SDS011;69594;43.516;1.498;2023-06-14T07:35:42;15.30;;;8.43;;
80293;SDS011;69594;43.516;1.498;2023-06-14T07:38:07;13.15;;;8.40;;
80293;SDS011;69594;43.516;1.498;2023-06-14T07:40:33;13.70;;;7.93;;
80293;SDS011;69594;43.516;1.498;2023-06-14T07:42:58;17.73;;;9.00;;
80293;SDS011;69594;43.516;1.498;2023-06-14T07:45:24;15.95;;;8.68;;
80293;SDS011;69594;43.516;1.498;2023-06-14T07:47:50;14.43;;;9.27;;
80293;SDS011;69594;43.516;1.498;2023-06-14T07:50:16;12.98;;;8.02;;
80293;SDS011;69594;43.516;1.498;2023-06-14T07:52:43;13.77;;;8.57;;
80293;SDS011;69594;43.516;1.498;2023-06-14T07:55:13;14.07;;;8.68;;
80293;SDS011;69594;43.516;1.498;2023-06-14T07:57:40;13.73;;;8.70;;
80293;SDS011;69594;43.516;1.498;2023-06-14T08:00:05;15.13;;;8.20;;
80293;SDS011;69594;43.516;1.498;2023-06-14T08:02:31;14.23;;;8.80;;
80293;SDS011;69594;43.516;1.498;2023-06-14T08:04:57;13.87;;;8.63;;
80293;SDS011;69594;43.516;1.498;2023-06-14T08:07:23;13.40;;;8.68;;
80293;SDS011;69594;43.516;1.498;2023-06-14T08:09:49;15.00;;;9.25;;
80293;SDS011;69594;43.516;1.498;2023-06-14T08:12:15;15.73;;;9.07;;
80293;SDS011;69594;43.516;1.498;2023-06-14T08:14:41;16.80;;;9.00;;
80293;SDS011;69594;43.516;1.498;2023-06-14T08:17:07;18.70;;;8.32;;
80293;SDS011;69594;43.516;1.498;2023-06-14T08:19:33;15.63;;;8.50;;
80293;SDS011;69594;43.516;1.498;2023-06-14T08:21:59;13.33;;;9.00;;
80293;SDS011;69594;43.516;1.498;2023-06-14T08:24:25;12.90;;;8.15;;
80293;SDS011;69594;43.516;1.498;2023-06-14T08:26:54;14.90;;;7.88;;
80293;SDS011;69594;43.516;1.498;2023-06-14T08:29:25;11.63;;;7.13;;
80293;SDS011;69594;43.516;1.498;2023-06-14T08:31:54;13.35;;;7.97;;
80293;SDS011;69594;43.516;1.498;2023-06-14T08:34:20;10.97;;;7.90;;
80293;SDS011;69594;43.516;1.498;2023-06-14T08:36:45;12.32;;;7.30;;
80293;SDS011;69594;43.516;1.498;2023-06-14T08:39:11;11.37;;;7.00;;
80293;SDS011;69594;43.516;1.498;2023-06-14T08:41:39;12.48;;;7.20;;
80293;SDS011;69594;43.516;1.498;2023-06-14T08:44:05;11.47;;;6.83;;
80293;SDS011;69594;43.516;1.498;2023-06-14T08:46:32;12.80;;;7.28;;
80293;SDS011;69594;43.516;1.498;2023-06-14T08:48:59;12.40;;;7.55;;
80293;SDS011;69594;43.516;1.498;2023-06-14T08:51:28;9.18;;;6.18;;
80293;SDS011;69594;43.516;1.498;2023-06-14T08:53:59;12.43;;;6.23;;
80293;SDS011;69594;43.516;1.498;2023-06-14T08:56:27;10.75;;;7.00;;
80293;SDS011;69594;43.516;1.498;2023-06-14T08:58:54;10.63;;;6.78;;
80293;SDS011;69594;43.516;1.498;2023-06-14T09:01:21;13.90;;;7.00;;
80293;SDS011;69594;43.516;1.498;2023-06-14T09:03:48;11.65;;;6.00;;
80293;SDS011;69594;43.516;1.498;2023-06-14T09:06:15;12.00;;;7.17;;
80293;SDS011;69594;43.516;1.498;2023-06-14T09:08:45;12.70;;;6.20;;
80293;SDS011;69594;43.516;1.498;2023-06-14T09:11:12;14.05;;;7.22;;
80293;SDS011;69594;43.516;1.498;2023-06-14T09:13:39;12.20;;;7.07;;
80293;SDS011;69594;43.516;1.498;2023-06-14T09:16:06;8.40;;;6.00;;
80293;SDS011;69594;43.516;1.498;2023-06-14T09:18:35;11.83;;;6.37;;
80293;SDS011;69594;43.516;1.498;2023-06-14T09:21:01;10.35;;;6.47;;
80293;SDS011;69594;43.516;1.498;2023-06-14T09:23:26;11.27;;;6.87;;
80293;SDS011;69594;43.516;1.498;2023-06-14T09:25:54;12.00;;;6.07;;
80293;SDS011;69594;43.516;1.498;2023-06-14T09:28:20;13.20;;;6.82;;
80293;SDS011;69594;43.516;1.498;2023-06-14T09:30:51;16.57;;;6.93;;
80293;SDS011;69594;43.516;1.498;2023-06-14T09:33:17;12.90;;;7.55;;
80293;SDS011;69594;43.516;1.498;2023-06-14T09:35:45;14.83;;;6.87;;
80293;SDS011;69594;43.516;1.498;2023-06-14T09:38:11;14.55;;;7.28;;
80293;SDS011;69594;43.516;1.498;2023-06-14T09:40:37;11.10;;;6.97;;
80293;SDS011;69594;43.516;1.498;2023-06-14T09:43:05;12.80;;;7.05;;
80293;SDS011;69594;43.516;1.498;2023-06-14T09:45:33;10.98;;;7.32;;
80293;SDS011;69594;43.516;1.498;2023-06-14T09:47:59;9.73;;;7.25;;
80293;SDS011;69594;43.516;1.498;2023-06-14T09:50:25;9.67;;;6.97;;
80293;SDS011;69594;43.516;1.498;2023-06-14T09:52:52;12.05;;;7.43;;
80293;SDS011;69594;43.516;1.498;2023-06-14T09:55:22;13.77;;;7.17;;
80293;SDS011;69594;43.516;1.498;2023-06-14T09:57:51;11.18;;;7.38;;
80293;SDS011;69594;43.516;1.498;2023-06-14T10:00:19;12.60;;;7.28;;
80293;SDS011;69594;43.516;1.498;2023-06-14T10:02:46;10.15;;;6.88;;
80293;SDS011;69594;43.516;1.498;2023-06-14T10:05:19;13.35;;;7.25;;
80293;SDS011;69594;43.516;1.498;2023-06-14T10:07:53;10.97;;;7.67;;
80293;SDS011;69594;43.516;1.498;2023-06-14T10:10:21;14.80;;;9.40;;
80293;SDS011;69594;43.516;1.498;2023-06-14T10:12:47;13.23;;;7.45;;
80293;SDS011;69594;43.516;1.498;2023-06-14T10:15:17;14.07;;;7.57;;
80293;SDS011;69594;43.516;1.498;2023-06-14T10:20:41;10.23;;;6.70;;
80293;SDS011;69594;43.516;1.498;2023-06-14T10:23:19;16.73;;;7.95;;
80293;SDS011;69594;43.516;1.498;2023-06-14T10:25:49;13.20;;;7.22;;
80293;SDS011;69594;43.516;1.498;2023-06-14T10:28:17;11.30;;;6.82;;
80293;SDS011;69594;43.516;1.498;2023-06-14T10:33:48;13.15;;;7.95;;
80293;SDS011;69594;43.516;1.498;2023-06-14T10:39:05;14.55;;;7.45;;
80293;SDS011;69594;43.516;1.498;2023-06-14T10:41:52;14.48;;;7.75;;
80293;SDS011;69594;43.516;1.498;2023-06-14T10:46:52;13.48;;;7.85;;
80293;SDS011;69594;43.516;1.498;2023-06-14T10:52:07;12.95;;;7.15;;
80293;SDS011;69594;43.516;1.498;2023-06-14T10:54:56;11.27;;;7.10;;
80293;SDS011;69594;43.516;1.498;2023-06-14T10:57:26;12.00;;;7.10;;
80293;SDS011;69594;43.516;1.498;2023-06-14T10:59:53;14.45;;;6.90;;
80293;SDS011;69594;43.516;1.498;2023-06-14T11:02:27;9.90;;;7.03;;
80293;SDS011;69594;43.516;1.498;2023-06-14T11:05:13;11.05;;;7.80;;
80293;SDS011;69594;43.516;1.498;2023-06-14T11:10:37;9.83;;;6.07;;
80293;SDS011;69594;43.516;1.498;2023-06-14T11:13:08;9.82;;;6.90;;
80293;SDS011;69594;43.516;1.498;2023-06-14T11:15:43;12.50;;;7.30;;
80293;SDS011;69594;43.516;1.498;2023-06-14T11:18:11;10.82;;;6.63;;
80293;SDS011;69594;43.516;1.498;2023-06-14T11:20:39;10.00;;;6.20;;
80293;SDS011;69594;43.516;1.498;2023-06-14T11:23:05;11.37;;;7.33;;
80293;SDS011;69594;43.516;1.498;2023-06-14T11:25:30;10.57;;;6.60;;
80293;SDS011;69594;43.516;1.498;2023-06-14T11:27:57;10.23;;;7.13;;
80293;SDS011;69594;43.516;1.498;2023-06-14T11:30:24;10.98;;;6.63;;
80293;SDS011;69594;43.516;1.498;2023-06-14T11:32:53;9.60;;;7.07;;
80293;SDS011;69594;43.516;1.498;2023-06-14T11:35:19;10.75;;;6.65;;
80293;SDS011;69594;43.516;1.498;2023-06-14T11:37:52;14.05;;;7.10;;
80293;SDS011;69594;43.516;1.498;2023-06-14T11:40:18;13.30;;;6.33;;
80293;SDS011;69594;43.516;1.498;2023-06-14T11:42:44;12.82;;;7.30;;
80293;SDS011;69594;43.516;1.498;2023-06-14T11:45:11;12.80;;;6.97;;
80293;SDS011;69594;43.516;1.498;2023-06-14T11:47:38;9.10;;;6.60;;
80293;SDS011;69594;43.516;1.498;2023-06-14T11:50:05;12.75;;;6.75;;
80293;SDS011;69594;43.516;1.498;2023-06-14T11:52:32;12.20;;;6.40;;
80293;SDS011;69594;43.516;1.498;2023-06-14T11:54:58;12.52;;;6.57;;
80293;SDS011;69594;43.516;1.498;2023-06-14T11:57:24;9.20;;;6.28;;
80293;SDS011;69594;43.516;1.498;2023-06-14T11:59:50;10.75;;;6.70;;
80293;SDS011;69594;43.516;1.498;2023-06-14T12:02:17;11.57;;;6.37;;
80293;SDS011;69594;43.516;1.498;2023-06-14T12:04:46;12.02;;;6.35;;
80293;SDS011;69594;43.516;1.498;2023-06-14T12:07:14;11.57;;;7.07;;
80293;SDS011;69594;43.516;1.498;2023-06-14T12:09:42;10.93;;;6.50;;
80293;SDS011;69594;43.516;1.498;2023-06-14T12:12:28;8.63;;;6.50;;
80293;SDS011;69594;43.516;1.498;2023-06-14T12:14:56;12.73;;;7.70;;
80293;SDS011;69594;43.516;1.498;2023-06-14T12:17:22;10.90;;;6.40;;
80293;SDS011;69594;43.516;1.498;2023-06-14T12:19:48;11.87;;;7.23;;
80293;SDS011;69594;43.516;1.498;2023-06-14T12:22:15;10.70;;;6.70;;
80293;SDS011;69594;43.516;1.498;2023-06-14T12:24:45;13.13;;;6.72;;
80293;SDS011;69594;43.516;1.498;2023-06-14T12:27:13;10.57;;;6.25;;
80293;SDS011;69594;43.516;1.498;2023-06-14T12:29:44;10.60;;;5.67;;
80293;SDS011;69594;43.516;1.498;2023-06-14T12:32:23;11.98;;;6.60;;
80293;SDS011;69594;43.516;1.498;2023-06-14T12:34:49;8.15;;;6.32;;
80293;SDS011;69594;43.516;1.498;2023-06-14T12:37:15;12.50;;;6.57;;
80293;SDS011;69594;43.516;1.498;2023-06-14T12:39:41;9.52;;;6.03;;
80293;SDS011;69594;43.516;1.498;2023-06-14T12:42:06;10.20;;;6.30;;
80293;SDS011;69594;43.516;1.498;2023-06-14T12:44:32;13.30;;;7.00;;
80293;SDS011;69594;43.516;1.498;2023-06-14T12:47:00;11.93;;;6.30;;
80293;SDS011;69594;43.516;1.498;2023-06-14T12:49:26;10.87;;;6.03;;
80293;SDS011;69594;43.516;1.498;2023-06-14T12:51:51;9.18;;;6.50;;
80293;SDS011;69594;43.516;1.498;2023-06-14T12:56:53;13.80;;;6.88;;
80293;SDS011;69594;43.516;1.498;2023-06-14T12:59:20;9.15;;;6.38;;
80293;SDS011;69594;43.516;1.498;2023-06-14T13:04:20;9.30;;;6.45;;
80293;SDS011;69594;43.516;1.498;2023-06-14T13:06:46;11.60;;;6.00;;
80293;SDS011;69594;43.516;1.498;2023-06-14T13:09:12;9.60;;;6.45;;
80293;SDS011;69594;43.516;1.498;2023-06-14T13:11:38;12.20;;;6.47;;
80293;SDS011;69594;43.516;1.498;2023-06-14T13:14:03;9.27;;;6.90;;
80293;SDS011;69594;43.516;1.498;2023-06-14T13:16:28;12.63;;;6.43;;
80293;SDS011;69594;43.516;1.498;2023-06-14T13:18:55;12.32;;;6.57;;
80293;SDS011;69594;43.516;1.498;2023-06-14T13:21:21;13.97;;;6.47;;
80293;SDS011;69594;43.516;1.498;2023-06-14T13:23:46;8.50;;;6.23;;
80293;SDS011;69594;43.516;1.498;2023-06-14T13:26:12;10.57;;;5.93;;
80293;SDS011;69594;43.516;1.498;2023-06-14T13:28:37;8.95;;;6.20;;
80293;SDS011;69594;43.516;1.498;2023-06-14T13:31:03;9.13;;;6.53;;
80293;SDS011;69594;43.516;1.498;2023-06-14T13:33:28;8.73;;;5.90;;
80293;SDS011;69594;43.516;1.498;2023-06-14T13:35:54;11.93;;;6.35;;
80293;SDS011;69594;43.516;1.498;2023-06-14T13:38:19;8.77;;;5.63;;
80293;SDS011;69594;43.516;1.498;2023-06-14T13:40:45;11.00;;;6.40;;
80293;SDS011;69594;43.516;1.498;2023-06-14T13:43:10;10.90;;;6.30;;
80293;SDS011;69594;43.516;1.498;2023-06-14T13:45:36;10.27;;;6.87;;
80293;SDS011;69594;43.516;1.498;2023-06-14T13:48:01;8.40;;;5.80;;
80293;SDS011;69594;43.516;1.498;2023-06-14T13:50:27;10.95;;;6.35;;
80293;SDS011;69594;43.516;1.498;2023-06-14T13:52:52;7.57;;;5.97;;
80293;SDS011;69594;43.516;1.498;2023-06-14T13:55:18;8.77;;;6.20;;
80293;SDS011;69594;43.516;1.498;2023-06-14T13:57:43;9.45;;;5.75;;
80293;SDS011;69594;43.516;1.498;2023-06-14T14:00:10;11.13;;;6.57;;
80293;SDS011;69594;43.516;1.498;2023-06-14T14:02:37;10.10;;;5.55;;
80293;SDS011;69594;43.516;1.498;2023-06-14T14:05:04;9.40;;;6.05;;
80293;SDS011;69594;43.516;1.498;2023-06-14T14:07:30;9.15;;;5.57;;
80293;SDS011;69594;43.516;1.498;2023-06-14T14:09:56;8.87;;;6.40;;
80293;SDS011;69594;43.516;1.498;2023-06-14T14:12:22;10.23;;;5.82;;
80293;SDS011;69594;43.516;1.498;2023-06-14T14:14:48;9.68;;;5.72;;
80293;SDS011;69594;43.516;1.498;2023-06-14T14:17:13;11.17;;;7.17;;
80293;SDS011;69594;43.516;1.498;2023-06-14T14:19:39;9.93;;;5.53;;
80293;SDS011;69594;43.516;1.498;2023-06-14T14:22:04;9.40;;;6.25;;
80293;SDS011;69594;43.516;1.498;2023-06-14T14:24:30;9.53;;;6.03;;
80293;SDS011;69594;43.516;1.498;2023-06-14T14:26:55;8.60;;;6.10;;
80293;SDS011;69594;43.516;1.498;2023-06-14T14:29:24;11.95;;;6.53;;
80293;SDS011;69594;43.516;1.498;2023-06-14T14:31:50;11.48;;;6.90;;
80293;SDS011;69594;43.516;1.498;2023-06-14T14:34:15;13.07;;;6.37;;
80293;SDS011;69594;43.516;1.498;2023-06-14T14:36:41;12.90;;;6.43;;
80293;SDS011;69594;43.516;1.498;2023-06-14T14:39:07;10.95;;;6.50;;
80293;SDS011;69594;43.516;1.498;2023-06-14T14:41:35;12.95;;;6.60;;
80293;SDS011;69594;43.516;1.498;2023-06-14T14:44:01;11.03;;;6.60;;
80293;SDS011;69594;43.516;1.498;2023-06-14T14:46:27;9.48;;;6.47;;
80293;SDS011;69594;43.516;1.498;2023-06-14T14:48:53;10.40;;;6.63;;
80293;SDS011;69594;43.516;1.498;2023-06-14T14:51:19;10.70;;;6.40;;
80293;SDS011;69594;43.516;1.498;2023-06-14T14:53:44;13.27;;;6.63;;
80293;SDS011;69594;43.516;1.498;2023-06-14T14:56:10;10.33;;;6.57;;
80293;SDS011;69594;43.516;1.498;2023-06-14T14:58:37;12.88;;;6.93;;
80293;SDS011;69594;43.516;1.498;2023-06-14T15:01:06;11.07;;;6.60;;
80293;SDS011;69594;43.516;1.498;2023-06-14T15:03:33;11.70;;;6.72;;